Aniara — SKJC — position and weather

sailwx.info

Track history (hours):
 
Tides and Currents Weather Stations Pressure Air Temp Water Temp Dewpoint Dewpoint Depression Visibility Wind Speed Wind Dir Waves Ship Positions

Aniara

Last reported at 2017-Jun-27 13:55 UTC. Time now 2017-Jun-28 19:33 UTC.
Position N 27°36' W 015°14'.

Length 232 m; draft 9.7 m.

Type: Cargo ship. MMSI: 266282000.

Date/timePositionNaut miles runAvg speedWind from/ knotsBaromVisibWave heightAir tempDewpointWater temp
2017-Jun-27 13:55N 27°36' W 015°14'718.2
2017-Jun-27 13:30N 27°43' W 015°11'917.9
2017-Jun-27 13:00N 27°51' W 015°07'917.7
2017-Jun-27 12:30N 27°59' W 015°04'917.8
2017-Jun-27 12:00N 28°08' W 015°00'917.7
2017-Jun-27 11:30N 28°16' W 014°57'918.0
2017-Jun-27 11:00N 28°25' W 014°54'918.2
2017-Jun-27 10:30N 28°33' W 014°51'918.0
2017-Jun-27 10:00N 28°42' W 014°48'917.7
2017-Jun-27 09:29N 28°51' W 014°46'817.5
2017-Jun-27 09:00N 28°59' W 014°43'917.7
2017-Jun-27 08:30N 29°08' W 014°41'917.7
2017-Jun-27 08:00N 29°16' W 014°38'917.8
2017-Jun-27 07:30N 29°25' W 014°35'1117.5
2017-Jun-27 06:52N 29°36' W 014°32'617.2
2017-Jun-27 06:30N 29°42' W 014°30'917.2
2017-Jun-27 06:00N 29°50' W 014°28'1017.1
2017-Jun-27 05:26N 29°59' W 014°25'1017.1
2017-Jun-27 04:50N 30°09' W 014°22'1117.4
2017-Jun-27 04:13N 30°20' W 014°18'417.2
2017-Jun-27 04:00N 30°23' W 014°17'917.0
2017-Jun-27 03:30N 30°32' W 014°15'817.2
2017-Jun-27 03:00N 30°40' W 014°12'917.5
2017-Jun-27 02:30N 30°48' W 014°10'917.6
2017-Jun-27 02:00N 30°57' W 014°07'917.4
2017-Jun-27 01:30N 31°05' W 014°04'1017.4
2017-Jun-27 00:57N 31°14' W 014°02'4917.6
2017-Jun-26 22:12N 32°01' W 013°47'78915.9
2017-Jun-24 20:42N 43°47' W 006°19'517.2
2017-Jun-24 20:26N 43°46' W 006°13'917.4
2017-Jun-24 19:56N 43°46' W 006°01'2217.5
2017-Jun-24 18:39N 43°43' W 005°30'717.0
2017-Jun-24 18:15N 43°42' W 005°21'717.1
2017-Jun-24 17:50N 43°41' W 005°11'616.7
2017-Jun-24 17:29N 43°40' W 005°03'332 7.9
2017-Jun-22 23:15N 49°12' W 005°03'4 9.8
2017-Jun-22 22:53N 49°14' W 004°58'614.7
2017-Jun-22 22:29N 49°16' W 004°50'3115.9
2017-Jun-22 20:33N 49°32' W 004°10'2414.7
2017-Jun-22 18:56N 49°44' W 003°38'613.6
2017-Jun-22 18:29N 49°47' W 003°30'613.2
2017-Jun-22 18:00N 49°51' W 003°21'612.8
2017-Jun-22 17:30N 49°54' W 003°13'612.6
2017-Jun-22 17:00N 49°57' W 003°05'612.6
2017-Jun-22 16:30N 49°60' W 002°56'613.0
2017-Jun-22 16:00N 50°02' W 002°46'2714.3
2017-Jun-22 14:09N 50°08' W 002°06'6616.4
2017-Jun-22 10:08N 50°26' W 000°27'214.8
2017-Jun-22 10:00N 50°27' W 000°24'714.2
2017-Jun-22 09:30N 50°29' W 000°13'713.4
2017-Jun-22 09:01N 50°31' W 000°03'612.8
2017-Jun-22 08:31N 50°32' E 000°07'612.5
2017-Jun-22 08:00N 50°34' E 000°16'612.0
2017-Jun-22 07:31N 50°36' E 000°25'611.9
2017-Jun-22 07:01N 50°37' E 000°34'612.5
2017-Jun-22 06:31N 50°41' E 000°42'713.2
2017-Jun-22 06:00N 50°45' E 000°50'714.1
2017-Jun-22 05:30N 50°50' E 000°59'815.6
2017-Jun-22 05:01N 50°55' E 001°08'917.1
2017-Jun-22 04:31N 51°00' E 001°18'816.9
2017-Jun-22 04:01N 51°05' E 001°29'816.9
2017-Jun-22 03:31N 51°11' E 001°40'816.1
2017-Jun-22 03:01N 51°16' E 001°49'815.3
2017-Jun-22 02:31N 51°23' E 001°56'713.6
2017-Jun-22 02:01N 51°24' E 002°07'815.8
2017-Jun-22 01:31N 51°21' E 002°19'815.0
2017-Jun-22 01:01N 51°23' E 002°30'714.9
2017-Jun-22 00:31N 51°23' E 002°42'713.1
2017-Jun-22 00:00N 51°25' E 002°52'816.3
2017-Jun-21 23:30N 51°24' E 003°05'611.3
2017-Jun-21 23:00N 51°21' E 003°12'1 1.7
2017-Jun-21 22:28N 51°20' E 003°13'1 2.2
2017-Jun-21 21:58N 51°19' E 003°14'0 0.0
2017-Jun-21 21:28N 51°19' E 003°14'0 0.0
2017-Jun-21 20:58N 51°19' E 003°14'0 0.0
2017-Jun-21 20:28N 51°19' E 003°14'0 0.0
2017-Jun-21 19:58N 51°19' E 003°14'0 0.0
2017-Jun-21 19:28N 51°19' E 003°14'0 0.0
2017-Jun-21 18:58N 51°19' E 003°14'0 0.0
2017-Jun-21 18:28N 51°19' E 003°14'0 0.0
2017-Jun-21 17:58N 51°19' E 003°14'0 0.0
2017-Jun-21 17:28N 51°19' E 003°14'0 0.0
2017-Jun-21 16:58N 51°19' E 003°14'0 0.0
2017-Jun-21 16:28N 51°19' E 003°14'0 0.0
2017-Jun-21 15:58N 51°19' E 003°14'0 0.0
2017-Jun-21 15:28N 51°19' E 003°14'0 0.0
2017-Jun-21 14:58N 51°19' E 003°14'0 0.0
2017-Jun-21 14:28N 51°19' E 003°14'0 0.0
2017-Jun-21 13:28N 51°19' E 003°14'0 0.0
2017-Jun-21 12:58N 51°19' E 003°14'0 0.0
2017-Jun-21 12:28N 51°19' E 003°14'0 0.0
2017-Jun-21 11:58N 51°19' E 003°14'0 0.0
2017-Jun-21 11:28N 51°19' E 003°14'0 0.0
2017-Jun-21 10:58N 51°19' E 003°14'0 0.0
2017-Jun-21 10:25N 51°19' E 003°14'0 0.0
2017-Jun-21 09:58N 51°19' E 003°14'0 0.0
2017-Jun-21 09:28N 51°19' E 003°14'0 0.0
2017-Jun-21 08:58N 51°19' E 003°14'0 0.0
2017-Jun-21 08:29N 51°19' E 003°14'0 0.0
2017-Jun-21 07:58N 51°19' E 003°14'0 0.0
2017-Jun-21 07:28N 51°19' E 003°14'0 0.0
2017-Jun-21 06:58N 51°19' E 003°14'0 0.0
2017-Jun-21 06:28N 51°19' E 003°14'0 0.0
2017-Jun-21 05:58N 51°19' E 003°14'0 0.0
2017-Jun-21 05:28N 51°19' E 003°14'0 0.0
2017-Jun-21 04:58N 51°19' E 003°14'0 0.0
2017-Jun-21 04:28N 51°19' E 003°14'0 0.0
2017-Jun-21 03:58N 51°19' E 003°14'0 0.0
2017-Jun-21 03:28N 51°19' E 003°14'0 0.0
2017-Jun-21 02:58N 51°19' E 003°14'0 0.0
2017-Jun-21 02:28N 51°19' E 003°14'0 0.0
2017-Jun-21 01:58N 51°19' E 003°14'0 0.0
2017-Jun-21 01:28N 51°19' E 003°14'0 0.0
2017-Jun-21 00:58N 51°19' E 003°14'0 0.0
2017-Jun-21 00:28N 51°19' E 003°14'0 0.0
2017-Jun-20 23:58N 51°19' E 003°14'0 0.0
2017-Jun-20 23:28N 51°19' E 003°14'0 0.0
2017-Jun-20 22:58N 51°19' E 003°14'0 0.0
2017-Jun-20 22:28N 51°19' E 003°14'0 0.0
2017-Jun-20 21:58N 51°19' E 003°14'0 0.0
2017-Jun-20 21:28N 51°19' E 003°14'0 0.0
2017-Jun-20 20:58N 51°19' E 003°14'0 0.0
2017-Jun-20 20:28N 51°19' E 003°14'0 0.0
2017-Jun-20 19:58N 51°19' E 003°14'0 0.0
2017-Jun-20 19:28N 51°19' E 003°14'0 0.0
2017-Jun-20 18:58N 51°19' E 003°14'0 0.0
2017-Jun-20 18:28N 51°19' E 003°14'0 0.0
2017-Jun-20 17:58N 51°19' E 003°14'0 0.0
2017-Jun-20 17:28N 51°19' E 003°14'1 1.6
2017-Jun-20 17:00N 51°20' E 003°13'0 0.5
2017-Jun-20 16:30N 51°20' E 003°13'0 0.0
2017-Jun-20 16:00N 51°20' E 003°13'0 0.0
2017-Jun-20 15:30N 51°20' E 003°13'1 2.2
2017-Jun-20 15:00N 51°21' E 003°12'1 2.2
2017-Jun-20 14:30N 51°22' E 003°11'1111.0
2017-Jun-20 13:30N 51°25' E 002°55'612.2
2017-Jun-20 13:00N 51°24' E 002°45'3 6.5
2017-Jun-20 12:30N 51°26' E 002°42'4 8.0
2017-Jun-20 12:00N 51°30' E 002°41'4 8.1
2017-Jun-20 11:30N 51°34' E 002°41'4 8.4
2017-Jun-20 11:00N 51°39' E 002°40'4 8.3
2017-Jun-20 10:30N 51°43' E 002°39'4 8.4
2017-Jun-20 09:59N 51°47' E 002°38'4 8.4
2017-Jun-20 09:30N 51°51' E 002°37'6 7.9
2017-Jun-20 08:45N 51°56' E 002°42'510.8
2017-Jun-20 08:18N 52°00' E 002°46'515.7
2017-Jun-20 08:00N 52°04' E 002°51'918.4
2017-Jun-20 07:30N 52°12' E 002°59'919.2
2017-Jun-20 07:00N 52°20' E 003°07'1019.6
2017-Jun-20 06:30N 52°27' E 003°18'1319.8
2017-Jun-20 05:52N 52°38' E 003°30'1020.0
2017-Jun-20 05:23N 52°45' E 003°40'819.9
2017-Jun-20 05:00N 52°51' E 003°48'1019.8
2017-Jun-20 04:30N 52°58' E 003°60'919.2
2017-Jun-20 04:00N 53°03' E 004°13'1018.9
2017-Jun-20 03:30N 53°09' E 004°25'918.5
2017-Jun-20 03:00N 53°18' E 004°31'1416.9
2017-Jun-20 02:11N 53°29' E 004°44'517.4
2017-Jun-20 01:53N 53°31' E 004°52'717.7
2017-Jun-20 01:29N 53°34' E 005°04'1017.5
2017-Jun-20 00:56N 53°37' E 005°19'817.9
2017-Jun-20 00:30N 53°39' E 005°31'918.3
2017-Jun-20 00:00N 53°42' E 005°46'919.1
2017-Jun-19 23:30N 53°45' E 006°01'1219.5
2017-Jun-19 22:53N 53°49' E 006°20'819.7
2017-Jun-19 22:28N 53°51' E 006°34'1819.7
2017-Jun-19 21:33N 53°55' E 007°04'2316.8
2017-Jun-19 20:12N 53°56' E 007°43'315.7
2017-Jun-19 20:00N 53°54' E 007°46'3 2.2
2017-Jun-19 18:50N 53°53' E 007°50'3 9.1
2017-Jun-19 18:29N 53°52' E 007°55'612.6
2017-Jun-19 18:00N 53°50' E 008°05'611.2
2017-Jun-19 17:30N 53°46' E 008°11'511.1
2017-Jun-19 17:00N 53°43' E 008°19'510.2
2017-Jun-19 16:30N 53°39' E 008°25'3 6.8
2017-Jun-19 16:00N 53°37' E 008°29'4 7.4
2017-Jun-19 15:30N 53°34' E 008°33'0 0.8
2017-Jun-19 14:58N 53°34' E 008°33'0 0.9
2017-Jun-19 14:28N 53°35' E 008°33'0 0.0
2017-Jun-19 13:28N 53°35' E 008°33'0 0.0
2017-Jun-19 12:58N 53°35' E 008°33'0 0.0
2017-Jun-19 12:28N 53°35' E 008°33'0 0.0
2017-Jun-19 11:58N 53°35' E 008°33'0 0.0
2017-Jun-19 11:28N 53°35' E 008°33'0 0.0
2017-Jun-19 10:58N 53°35' E 008°33'0 0.0
2017-Jun-19 10:28N 53°35' E 008°33'0 0.0
2017-Jun-19 09:58N 53°35' E 008°33'0 0.0
2017-Jun-19 09:28N 53°35' E 008°33'0 0.0
2017-Jun-19 08:58N 53°35' E 008°33'0 0.0
2017-Jun-19 08:28N 53°35' E 008°33'0 0.0
2017-Jun-19 07:58N 53°35' E 008°33'0 0.0
2017-Jun-19 07:28N 53°35' E 008°33'0 0.0
2017-Jun-19 06:58N 53°35' E 008°33'0 0.0
2017-Jun-19 06:28N 53°35' E 008°33'0 0.0
2017-Jun-19 05:58N 53°35' E 008°33'0 0.0
2017-Jun-19 05:28N 53°35' E 008°33'0 0.0
2017-Jun-19 04:58N 53°35' E 008°33'0 0.0
2017-Jun-19 04:28N 53°35' E 008°33'0 0.0
2017-Jun-19 03:58N 53°35' E 008°33'0 0.0
2017-Jun-19 03:28N 53°35' E 008°33'0 0.0
2017-Jun-19 02:58N 53°35' E 008°33'0 0.0
2017-Jun-19 02:28N 53°35' E 008°33'0 0.0
2017-Jun-19 01:58N 53°35' E 008°33'0 0.0
2017-Jun-19 01:28N 53°35' E 008°33'0 0.0
2017-Jun-19 00:58N 53°35' E 008°33'0 0.0
2017-Jun-19 00:28N 53°35' E 008°33'0 0.0
2017-Jun-18 23:58N 53°35' E 008°33'0 0.0
2017-Jun-18 23:28N 53°35' E 008°33'0 0.0
2017-Jun-18 22:58N 53°35' E 008°33'0 0.0
2017-Jun-18 22:28N 53°35' E 008°33'0 0.0
2017-Jun-18 21:58N 53°35' E 008°33'0 0.0
2017-Jun-18 21:28N 53°35' E 008°33'0 0.0
2017-Jun-18 20:58N 53°35' E 008°33'0 0.0
2017-Jun-18 20:28N 53°35' E 008°33'0 0.0
2017-Jun-18 19:58N 53°35' E 008°33'0 0.0
2017-Jun-18 19:28N 53°35' E 008°33'0 0.0
2017-Jun-18 18:58N 53°35' E 008°33'0 0.0
2017-Jun-18 18:28N 53°35' E 008°33'0 0.0
2017-Jun-18 17:58N 53°35' E 008°33'0 0.0
2017-Jun-18 17:28N 53°35' E 008°33'0 0.0
2017-Jun-18 16:58N 53°35' E 008°33'0 0.0
2017-Jun-18 16:28N 53°35' E 008°33'0 0.0
2017-Jun-18 15:58N 53°35' E 008°33'0 0.0
2017-Jun-18 15:28N 53°35' E 008°33'0 0.0
2017-Jun-18 14:58N 53°35' E 008°33'0 0.0
2017-Jun-18 13:58N 53°35' E 008°33'0 0.0
2017-Jun-18 13:28N 53°35' E 008°33'0 0.0
2017-Jun-18 12:58N 53°35' E 008°33'0 0.0
2017-Jun-18 12:28N 53°35' E 008°33'0 0.0
2017-Jun-18 11:58N 53°35' E 008°33'0 0.0
2017-Jun-18 11:28N 53°35' E 008°33'0 0.0
2017-Jun-18 10:58N 53°35' E 008°33'0 0.0
2017-Jun-18 10:28N 53°35' E 008°33'0 0.0
2017-Jun-18 09:58N 53°35' E 008°33'0 0.0
2017-Jun-18 09:28N 53°35' E 008°33'0 0.0
2017-Jun-18 08:58N 53°35' E 008°33'0 0.0
2017-Jun-18 08:28N 53°35' E 008°33'0 0.0
2017-Jun-18 07:58N 53°35' E 008°33'0 0.0
2017-Jun-18 07:28N 53°35' E 008°33'0 0.0
2017-Jun-18 06:58N 53°35' E 008°33'0 0.0
2017-Jun-18 06:28N 53°35' E 008°33'0 0.0
2017-Jun-18 05:58N 53°35' E 008°33'0 0.0
2017-Jun-18 05:28N 53°35' E 008°33'0 0.0
2017-Jun-18 04:58N 53°35' E 008°33'0 0.0
2017-Jun-18 04:28N 53°35' E 008°33'0 0.0
2017-Jun-18 03:58N 53°35' E 008°33'0 0.0
2017-Jun-18 03:28N 53°35' E 008°33'0 0.0
2017-Jun-18 02:58N 53°35' E 008°33'0 0.0
2017-Jun-18 02:28N 53°35' E 008°33'0 0.0
2017-Jun-18 01:58N 53°35' E 008°33'0 0.0
2017-Jun-18 01:28N 53°35' E 008°33'0 0.0
2017-Jun-18 00:58N 53°35' E 008°33'0 0.0
2017-Jun-18 00:28N 53°35' E 008°33'0 0.0
2017-Jun-17 23:58N 53°35' E 008°33'0 0.0
2017-Jun-17 23:28N 53°35' E 008°33'0 0.0
2017-Jun-17 22:58N 53°35' E 008°33'0 0.0
2017-Jun-17 22:28N 53°35' E 008°33'0 0.9
2017-Jun-17 22:00N 53°34' E 008°33'0 0.9
2017-Jun-17 21:30N 53°34' E 008°33'2 3.2
2017-Jun-17 21:00N 53°35' E 008°31'713.4
2017-Jun-17 20:30N 53°40' E 008°23'815.1
2017-Jun-17 20:00N 53°45' E 008°13'  
Track history (hours):
 
Tides and Currents Weather Stations Pressure Air Temp Water Temp Dewpoint Dewpoint Depression Visibility Wind Speed Wind Dir Waves Ship Positions

Aniara

Last reported at 2017-Jun-27 13:55 UTC. Time now 2017-Jun-28 19:33 UTC.
Position N 27°36' W 015°14'.

Length 232 m; draft 9.7 m.

Type: Cargo ship. MMSI: 266282000.

Date/timePositionNaut miles runAvg speedWind from/ knotsBaromVisibWave heightAir tempDewpointWater temp
2017-Jun-27 13:55N 27°36' W 015°14'718.2
2017-Jun-27 13:30N 27°43' W 015°11'917.9
2017-Jun-27 13:00N 27°51' W 015°07'917.7
2017-Jun-27 12:30N 27°59' W 015°04'917.8
2017-Jun-27 12:00N 28°08' W 015°00'917.7
2017-Jun-27 11:30N 28°16' W 014°57'918.0
2017-Jun-27 11:00N 28°25' W 014°54'918.2
2017-Jun-27 10:30N 28°33' W 014°51'918.0
2017-Jun-27 10:00N 28°42' W 014°48'917.7
2017-Jun-27 09:29N 28°51' W 014°46'817.5
2017-Jun-27 09:00N 28°59' W 014°43'917.7
2017-Jun-27 08:30N 29°08' W 014°41'917.7
2017-Jun-27 08:00N 29°16' W 014°38'917.8
2017-Jun-27 07:30N 29°25' W 014°35'1117.5
2017-Jun-27 06:52N 29°36' W 014°32'617.2
2017-Jun-27 06:30N 29°42' W 014°30'917.2
2017-Jun-27 06:00N 29°50' W 014°28'1017.1
2017-Jun-27 05:26N 29°59' W 014°25'1017.1
2017-Jun-27 04:50N 30°09' W 014°22'1117.4
2017-Jun-27 04:13N 30°20' W 014°18'417.2
2017-Jun-27 04:00N 30°23' W 014°17'917.0
2017-Jun-27 03:30N 30°32' W 014°15'817.2
2017-Jun-27 03:00N 30°40' W 014°12'917.5
2017-Jun-27 02:30N 30°48' W 014°10'917.6
2017-Jun-27 02:00N 30°57' W 014°07'917.4
2017-Jun-27 01:30N 31°05' W 014°04'1017.4
2017-Jun-27 00:57N 31°14' W 014°02'4917.6
2017-Jun-26 22:12N 32°01' W 013°47'78915.9
2017-Jun-24 20:42N 43°47' W 006°19'517.2
2017-Jun-24 20:26N 43°46' W 006°13'917.4
2017-Jun-24 19:56N 43°46' W 006°01'2217.5
2017-Jun-24 18:39N 43°43' W 005°30'717.0
2017-Jun-24 18:15N 43°42' W 005°21'717.1
2017-Jun-24 17:50N 43°41' W 005°11'616.7
2017-Jun-24 17:29N 43°40' W 005°03'332 7.9
2017-Jun-22 23:15N 49°12' W 005°03'4 9.8
2017-Jun-22 22:53N 49°14' W 004°58'614.7
2017-Jun-22 22:29N 49°16' W 004°50'3115.9
2017-Jun-22 20:33N 49°32' W 004°10'2414.7
2017-Jun-22 18:56N 49°44' W 003°38'613.6
2017-Jun-22 18:29N 49°47' W 003°30'613.2
2017-Jun-22 18:00N 49°51' W 003°21'612.8
2017-Jun-22 17:30N 49°54' W 003°13'612.6
2017-Jun-22 17:00N 49°57' W 003°05'612.6
2017-Jun-22 16:30N 49°60' W 002°56'613.0
2017-Jun-22 16:00N 50°02' W 002°46'2714.3
2017-Jun-22 14:09N 50°08' W 002°06'6616.4
2017-Jun-22 10:08N 50°26' W 000°27'214.8
2017-Jun-22 10:00N 50°27' W 000°24'714.2
2017-Jun-22 09:30N 50°29' W 000°13'713.4
2017-Jun-22 09:01N 50°31' W 000°03'612.8
2017-Jun-22 08:31N 50°32' E 000°07'612.5
2017-Jun-22 08:00N 50°34' E 000°16'612.0
2017-Jun-22 07:31N 50°36' E 000°25'611.9
2017-Jun-22 07:01N 50°37' E 000°34'612.5
2017-Jun-22 06:31N 50°41' E 000°42'713.2
2017-Jun-22 06:00N 50°45' E 000°50'714.1
2017-Jun-22 05:30N 50°50' E 000°59'815.6
2017-Jun-22 05:01N 50°55' E 001°08'917.1
2017-Jun-22 04:31N 51°00' E 001°18'816.9
2017-Jun-22 04:01N 51°05' E 001°29'816.9
2017-Jun-22 03:31N 51°11' E 001°40'816.1
2017-Jun-22 03:01N 51°16' E 001°49'815.3
2017-Jun-22 02:31N 51°23' E 001°56'713.6
2017-Jun-22 02:01N 51°24' E 002°07'815.8
2017-Jun-22 01:31N 51°21' E 002°19'815.0
2017-Jun-22 01:01N 51°23' E 002°30'714.9
2017-Jun-22 00:31N 51°23' E 002°42'713.1
2017-Jun-22 00:00N 51°25' E 002°52'816.3
2017-Jun-21 23:30N 51°24' E 003°05'611.3
2017-Jun-21 23:00N 51°21' E 003°12'1 1.7
2017-Jun-21 22:28N 51°20' E 003°13'1 2.2
2017-Jun-21 21:58N 51°19' E 003°14'0 0.0
2017-Jun-21 21:28N 51°19' E 003°14'0 0.0
2017-Jun-21 20:58N 51°19' E 003°14'0 0.0
2017-Jun-21 20:28N 51°19' E 003°14'0 0.0
2017-Jun-21 19:58N 51°19' E 003°14'0 0.0
2017-Jun-21 19:28N 51°19' E 003°14'0 0.0
2017-Jun-21 18:58N 51°19' E 003°14'0 0.0
2017-Jun-21 18:28N 51°19' E 003°14'0 0.0
2017-Jun-21 17:58N 51°19' E 003°14'0 0.0
2017-Jun-21 17:28N 51°19' E 003°14'0 0.0
2017-Jun-21 16:58N 51°19' E 003°14'0 0.0
2017-Jun-21 16:28N 51°19' E 003°14'0 0.0
2017-Jun-21 15:58N 51°19' E 003°14'0 0.0
2017-Jun-21 15:28N 51°19' E 003°14'0 0.0
2017-Jun-21 14:58N 51°19' E 003°14'0 0.0
2017-Jun-21 14:28N 51°19' E 003°14'0 0.0
2017-Jun-21 13:28N 51°19' E 003°14'0 0.0
2017-Jun-21 12:58N 51°19' E 003°14'0 0.0
2017-Jun-21 12:28N 51°19' E 003°14'0 0.0
2017-Jun-21 11:58N 51°19' E 003°14'0 0.0
2017-Jun-21 11:28N 51°19' E 003°14'0 0.0
2017-Jun-21 10:58N 51°19' E 003°14'0 0.0
2017-Jun-21 10:25N 51°19' E 003°14'0 0.0
2017-Jun-21 09:58N 51°19' E 003°14'0 0.0
2017-Jun-21 09:28N 51°19' E 003°14'0 0.0
2017-Jun-21 08:58N 51°19' E 003°14'0 0.0
2017-Jun-21 08:29N 51°19' E 003°14'0 0.0
2017-Jun-21 07:58N 51°19' E 003°14'0 0.0
2017-Jun-21 07:28N 51°19' E 003°14'0 0.0
2017-Jun-21 06:58N 51°19' E 003°14'0 0.0
2017-Jun-21 06:28N 51°19' E 003°14'0 0.0
2017-Jun-21 05:58N 51°19' E 003°14'0 0.0
2017-Jun-21 05:28N 51°19' E 003°14'0 0.0
2017-Jun-21 04:58N 51°19' E 003°14'0 0.0
2017-Jun-21 04:28N 51°19' E 003°14'0 0.0
2017-Jun-21 03:58N 51°19' E 003°14'0 0.0
2017-Jun-21 03:28N 51°19' E 003°14'0 0.0
2017-Jun-21 02:58N 51°19' E 003°14'0 0.0
2017-Jun-21 02:28N 51°19' E 003°14'0 0.0
2017-Jun-21 01:58N 51°19' E 003°14'0 0.0
2017-Jun-21 01:28N 51°19' E 003°14'0 0.0
2017-Jun-21 00:58N 51°19' E 003°14'0 0.0
2017-Jun-21 00:28N 51°19' E 003°14'0 0.0
2017-Jun-20 23:58N 51°19' E 003°14'0 0.0
2017-Jun-20 23:28N 51°19' E 003°14'0 0.0
2017-Jun-20 22:58N 51°19' E 003°14'0 0.0
2017-Jun-20 22:28N 51°19' E 003°14'0 0.0
2017-Jun-20 21:58N 51°19' E 003°14'0 0.0
2017-Jun-20 21:28N 51°19' E 003°14'0 0.0
2017-Jun-20 20:58N 51°19' E 003°14'0 0.0
2017-Jun-20 20:28N 51°19' E 003°14'0 0.0
2017-Jun-20 19:58N 51°19' E 003°14'0 0.0
2017-Jun-20 19:28N 51°19' E 003°14'0 0.0
2017-Jun-20 18:58N 51°19' E 003°14'0 0.0
2017-Jun-20 18:28N 51°19' E 003°14'0 0.0
2017-Jun-20 17:58N 51°19' E 003°14'0 0.0
2017-Jun-20 17:28N 51°19' E 003°14'1 1.6
2017-Jun-20 17:00N 51°20' E 003°13'0 0.5
2017-Jun-20 16:30N 51°20' E 003°13'0 0.0
2017-Jun-20 16:00N 51°20' E 003°13'0 0.0
2017-Jun-20 15:30N 51°20' E 003°13'1 2.2
2017-Jun-20 15:00N 51°21' E 003°12'1 2.2
2017-Jun-20 14:30N 51°22' E 003°11'1111.0
2017-Jun-20 13:30N 51°25' E 002°55'612.2
2017-Jun-20 13:00N 51°24' E 002°45'3 6.5
2017-Jun-20 12:30N 51°26' E 002°42'4 8.0
2017-Jun-20 12:00N 51°30' E 002°41'4 8.1
2017-Jun-20 11:30N 51°34' E 002°41'4 8.4
2017-Jun-20 11:00N 51°39' E 002°40'4 8.3
2017-Jun-20 10:30N 51°43' E 002°39'4 8.4
2017-Jun-20 09:59N 51°47' E 002°38'4 8.4
2017-Jun-20 09:30N 51°51' E 002°37'6 7.9
2017-Jun-20 08:45N 51°56' E 002°42'510.8
2017-Jun-20 08:18N 52°00' E 002°46'515.7
2017-Jun-20 08:00N 52°04' E 002°51'918.4
2017-Jun-20 07:30N 52°12' E 002°59'919.2
2017-Jun-20 07:00N 52°20' E 003°07'1019.6
2017-Jun-20 06:30N 52°27' E 003°18'1319.8
2017-Jun-20 05:52N 52°38' E 003°30'1020.0
2017-Jun-20 05:23N 52°45' E 003°40'819.9
2017-Jun-20 05:00N 52°51' E 003°48'1019.8
2017-Jun-20 04:30N 52°58' E 003°60'919.2
2017-Jun-20 04:00N 53°03' E 004°13'1018.9
2017-Jun-20 03:30N 53°09' E 004°25'918.5
2017-Jun-20 03:00N 53°18' E 004°31'1416.9
2017-Jun-20 02:11N 53°29' E 004°44'517.4
2017-Jun-20 01:53N 53°31' E 004°52'717.7
2017-Jun-20 01:29N 53°34' E 005°04'1017.5
2017-Jun-20 00:56N 53°37' E 005°19'817.9
2017-Jun-20 00:30N 53°39' E 005°31'918.3
2017-Jun-20 00:00N 53°42' E 005°46'919.1
2017-Jun-19 23:30N 53°45' E 006°01'1219.5
2017-Jun-19 22:53N 53°49' E 006°20'819.7
2017-Jun-19 22:28N 53°51' E 006°34'1819.7
2017-Jun-19 21:33N 53°55' E 007°04'2316.8
2017-Jun-19 20:12N 53°56' E 007°43'315.7
2017-Jun-19 20:00N 53°54' E 007°46'3 2.2
2017-Jun-19 18:50N 53°53' E 007°50'3 9.1
2017-Jun-19 18:29N 53°52' E 007°55'612.6
2017-Jun-19 18:00N 53°50' E 008°05'611.2
2017-Jun-19 17:30N 53°46' E 008°11'511.1
2017-Jun-19 17:00N 53°43' E 008°19'510.2
2017-Jun-19 16:30N 53°39' E 008°25'3 6.8
2017-Jun-19 16:00N 53°37' E 008°29'4 7.4
2017-Jun-19 15:30N 53°34' E 008°33'0 0.8
2017-Jun-19 14:58N 53°34' E 008°33'0 0.9
2017-Jun-19 14:28N 53°35' E 008°33'0 0.0
2017-Jun-19 13:28N 53°35' E 008°33'0 0.0
2017-Jun-19 12:58N 53°35' E 008°33'0 0.0
2017-Jun-19 12:28N 53°35' E 008°33'0 0.0
2017-Jun-19 11:58N 53°35' E 008°33'0 0.0
2017-Jun-19 11:28N 53°35' E 008°33'0 0.0
2017-Jun-19 10:58N 53°35' E 008°33'0 0.0
2017-Jun-19 10:28N 53°35' E 008°33'0 0.0
2017-Jun-19 09:58N 53°35' E 008°33'0 0.0
2017-Jun-19 09:28N 53°35' E 008°33'0 0.0
2017-Jun-19 08:58N 53°35' E 008°33'0 0.0
2017-Jun-19 08:28N 53°35' E 008°33'0 0.0
2017-Jun-19 07:58N 53°35' E 008°33'0 0.0
2017-Jun-19 07:28N 53°35' E 008°33'0 0.0
2017-Jun-19 06:58N 53°35' E 008°33'0 0.0
2017-Jun-19 06:28N 53°35' E 008°33'0 0.0
2017-Jun-19 05:58N 53°35' E 008°33'0 0.0
2017-Jun-19 05:28N 53°35' E 008°33'0 0.0
2017-Jun-19 04:58N 53°35' E 008°33'0 0.0
2017-Jun-19 04:28N 53°35' E 008°33'0 0.0
2017-Jun-19 03:58N 53°35' E 008°33'0 0.0
2017-Jun-19 03:28N 53°35' E 008°33'0 0.0
2017-Jun-19 02:58N 53°35' E 008°33'0 0.0
2017-Jun-19 02:28N 53°35' E 008°33'0 0.0
2017-Jun-19 01:58N 53°35' E 008°33'0 0.0
2017-Jun-19 01:28N 53°35' E 008°33'0 0.0
2017-Jun-19 00:58N 53°35' E 008°33'0 0.0
2017-Jun-19 00:28N 53°35' E 008°33'0 0.0
2017-Jun-18 23:58N 53°35' E 008°33'0 0.0
2017-Jun-18 23:28N 53°35' E 008°33'0 0.0
2017-Jun-18 22:58N 53°35' E 008°33'0 0.0
2017-Jun-18 22:28N 53°35' E 008°33'0 0.0
2017-Jun-18 21:58N 53°35' E 008°33'0 0.0
2017-Jun-18 21:28N 53°35' E 008°33'0 0.0
2017-Jun-18 20:58N 53°35' E 008°33'0 0.0
2017-Jun-18 20:28N 53°35' E 008°33'0 0.0
2017-Jun-18 19:58N 53°35' E 008°33'0 0.0
2017-Jun-18 19:28N 53°35' E 008°33'0 0.0
2017-Jun-18 18:58N 53°35' E 008°33'0 0.0
2017-Jun-18 18:28N 53°35' E 008°33'0 0.0
2017-Jun-18 17:58N 53°35' E 008°33'0 0.0
2017-Jun-18 17:28N 53°35' E 008°33'0 0.0
2017-Jun-18 16:58N 53°35' E 008°33'0 0.0
2017-Jun-18 16:28N 53°35' E 008°33'0 0.0
2017-Jun-18 15:58N 53°35' E 008°33'0 0.0
2017-Jun-18 15:28N 53°35' E 008°33'0 0.0
2017-Jun-18 14:58N 53°35' E 008°33'0 0.0
2017-Jun-18 13:58N 53°35' E 008°33'0 0.0
2017-Jun-18 13:28N 53°35' E 008°33'0 0.0
2017-Jun-18 12:58N 53°35' E 008°33'0 0.0
2017-Jun-18 12:28N 53°35' E 008°33'0 0.0
2017-Jun-18 11:58N 53°35' E 008°33'0 0.0
2017-Jun-18 11:28N 53°35' E 008°33'0 0.0
2017-Jun-18 10:58N 53°35' E 008°33'0 0.0
2017-Jun-18 10:28N 53°35' E 008°33'0 0.0
2017-Jun-18 09:58N 53°35' E 008°33'0 0.0
2017-Jun-18 09:28N 53°35' E 008°33'0 0.0
2017-Jun-18 08:58N 53°35' E 008°33'0 0.0
2017-Jun-18 08:28N 53°35' E 008°33'0 0.0
2017-Jun-18 07:58N 53°35' E 008°33'0 0.0
2017-Jun-18 07:28N 53°35' E 008°33'0 0.0
2017-Jun-18 06:58N 53°35' E 008°33'0 0.0
2017-Jun-18 06:28N 53°35' E 008°33'0 0.0
2017-Jun-18 05:58N 53°35' E 008°33'0 0.0
2017-Jun-18 05:28N 53°35' E 008°33'0 0.0
2017-Jun-18 04:58N 53°35' E 008°33'0 0.0
2017-Jun-18 04:28N 53°35' E 008°33'0 0.0
2017-Jun-18 03:58N 53°35' E 008°33'0 0.0
2017-Jun-18 03:28N 53°35' E 008°33'0 0.0
2017-Jun-18 02:58N 53°35' E 008°33'0 0.0
2017-Jun-18 02:28N 53°35' E 008°33'0 0.0
2017-Jun-18 01:58N 53°35' E 008°33'0 0.0
2017-Jun-18 01:28N 53°35' E 008°33'0 0.0
2017-Jun-18 00:58N 53°35' E 008°33'0 0.0
2017-Jun-18 00:28N 53°35' E 008°33'0 0.0
2017-Jun-17 23:58N 53°35' E 008°33'0 0.0
2017-Jun-17 23:28N 53°35' E 008°33'0 0.0
2017-Jun-17 22:58N 53°35' E 008°33'0 0.0
2017-Jun-17 22:28N 53°35' E 008°33'0 0.9
2017-Jun-17 22:00N 53°34' E 008°33'0 0.9
2017-Jun-17 21:30N 53°34' E 008°33'2 3.2
2017-Jun-17 21:00N 53°35' E 008°31'713.4
2017-Jun-17 20:30N 53°40' E 008°23'815.1
2017-Jun-17 20:00N 53°45' E 008°13'  

Dump ship's entire track history